createdAt,value
2019-03-09T00:00:57.439Z,11.46
2019-03-09T00:02:06.028Z,11.44
2019-03-09T00:03:14.250Z,11.42
2019-03-09T00:04:22.442Z,11.40
2019-03-09T00:05:30.623Z,11.36
2019-03-09T00:06:39.081Z,11.33
2019-03-09T00:07:47.227Z,11.31
2019-03-09T00:08:55.346Z,11.27
2019-03-09T00:10:03.331Z,11.25
2019-03-09T00:11:11.236Z,11.23
2019-03-09T00:12:19.523Z,11.20
2019-03-09T00:13:28.339Z,11.18
2019-03-09T00:14:36.366Z,11.16
2019-03-09T00:15:44.429Z,11.15
2019-03-09T00:16:53.012Z,11.13
2019-03-09T00:18:01.006Z,11.10
2019-03-09T00:19:08.918Z,11.07
2019-03-09T00:20:17.034Z,11.05
2019-03-09T00:21:25.472Z,11.03
2019-03-09T00:22:33.560Z,10.99
2019-03-09T00:23:43.758Z,10.97
2019-03-09T00:24:53.831Z,10.94
2019-03-09T00:26:11.432Z,10.92
2019-03-09T00:27:29.818Z,10.90
2019-03-09T00:28:54.716Z,10.89
2019-03-09T00:30:22.848Z,10.87
2019-03-09T00:31:30.828Z,10.82
2019-03-09T00:32:39.070Z,10.80
2019-03-09T00:33:47.905Z,10.75
2019-03-09T00:34:56.048Z,10.74
2019-03-09T00:36:04.136Z,10.72
2019-03-09T00:37:12.360Z,10.70
2019-03-09T00:38:20.434Z,10.69
2019-03-09T00:39:28.822Z,10.68
2019-03-09T00:40:37.000Z,10.65
2019-03-09T00:41:45.266Z,10.61
2019-03-09T00:42:53.327Z,10.59
2019-03-09T00:44:01.769Z,10.57
2019-03-09T00:45:10.508Z,10.55
2019-03-09T00:46:18.753Z,10.53
2019-03-09T00:47:26.952Z,10.50
2019-03-09T00:48:35.083Z,10.47
2019-03-09T00:49:42.985Z,10.45
2019-03-09T00:50:51.481Z,10.42
2019-03-09T00:51:59.238Z,10.39
2019-03-09T00:53:07.278Z,10.37
2019-03-09T00:54:15.518Z,10.35
2019-03-09T00:55:23.652Z,10.33
2019-03-09T00:56:31.793Z,10.31
2019-03-09T00:57:40.026Z,10.29
2019-03-09T00:58:48.132Z,10.28
2019-03-09T00:59:59.846Z,10.25
2019-03-09T01:01:07.926Z,10.25
2019-03-09T01:02:16.123Z,10.22
2019-03-09T01:03:24.415Z,10.20
2019-03-09T01:04:32.868Z,10.19
2019-03-09T01:05:41.195Z,10.17
2019-03-09T01:06:49.339Z,10.15
2019-03-09T01:07:57.383Z,10.15
2019-03-09T01:09:07.956Z,10.15
2019-03-09T01:10:17.480Z,10.13
2019-03-09T01:11:26.155Z,10.11
2019-03-09T01:12:34.084Z,10.09
2019-03-09T01:13:42.195Z,10.07
2019-03-09T01:14:50.366Z,10.07
2019-03-09T01:15:58.479Z,10.05
2019-03-09T01:17:06.602Z,10.05
2019-03-09T01:18:14.816Z,10.05
2019-03-09T01:19:23.281Z,10.04
2019-03-09T01:20:31.390Z,10.03
2019-03-09T01:21:39.805Z,10.02
2019-03-09T01:22:47.760Z,10.01
2019-03-09T01:23:56.165Z,10.00
2019-03-09T01:25:04.235Z,10.00
2019-03-09T01:26:12.539Z,9.99
2019-03-09T01:27:20.373Z,9.95
2019-03-09T01:28:28.338Z,9.97
2019-03-09T01:29:36.664Z,9.95
2019-03-09T01:30:44.877Z,9.95
2019-03-09T01:31:53.078Z,9.97
2019-03-09T01:33:00.972Z,9.97
2019-03-09T01:34:08.935Z,9.97
2019-03-09T01:35:17.464Z,9.97
2019-03-09T01:36:26.091Z,9.95
2019-03-09T01:37:34.133Z,9.95
2019-03-09T01:38:42.273Z,9.96
2019-03-09T01:39:50.254Z,9.95
2019-03-09T01:40:58.237Z,9.94
2019-03-09T01:42:06.149Z,9.94
2019-03-09T01:43:14.479Z,9.93
2019-03-09T01:44:22.758Z,9.93
2019-03-09T01:45:30.968Z,9.91
2019-03-09T01:46:39.425Z,9.91
2019-03-09T01:47:47.467Z,9.90
2019-03-09T01:48:55.448Z,9.89
2019-03-09T01:50:04.659Z,9.89
2019-03-09T01:51:13.121Z,9.90
2019-03-09T01:52:21.837Z,9.88
2019-03-09T01:53:36.773Z,9.87
2019-03-09T01:54:42.618Z,9.88
2019-03-09T01:55:50.538Z,9.86
2019-03-09T01:56:59.907Z,9.84
2019-03-09T01:58:07.987Z,9.84
2019-03-09T01:59:15.979Z,9.81
2019-03-09T02:00:24.188Z,9.80
2019-03-09T02:01:32.148Z,9.80
2019-03-09T02:02:40.342Z,9.79
2019-03-09T02:03:48.181Z,9.78
2019-03-09T02:04:56.088Z,9.77
2019-03-09T02:06:04.094Z,9.77
2019-03-09T02:07:12.040Z,9.78
2019-03-09T02:08:20.314Z,9.77
2019-03-09T02:09:28.486Z,9.78
2019-03-09T02:10:36.588Z,9.77
2019-03-09T02:11:44.522Z,9.77
2019-03-09T02:12:52.428Z,9.76
2019-03-09T02:14:00.591Z,9.75
2019-03-09T02:15:14.997Z,9.75
2019-03-09T02:16:23.415Z,9.75
2019-03-09T02:17:31.395Z,9.73
2019-03-09T02:18:39.409Z,9.73
2019-03-09T02:19:47.495Z,9.71
2019-03-09T02:20:55.866Z,9.71
2019-03-09T02:22:06.953Z,9.69
2019-03-09T02:23:14.862Z,9.66
2019-03-09T02:24:22.926Z,9.64
2019-03-09T02:25:34.161Z,9.64
2019-03-09T02:26:42.479Z,9.60
2019-03-09T02:27:50.782Z,9.59
2019-03-09T02:29:00.866Z,9.56
2019-03-09T02:30:16.990Z,9.57
2019-03-09T02:31:25.026Z,9.56
2019-03-09T02:32:32.869Z,9.53
2019-03-09T02:33:41.525Z,9.53
2019-03-09T02:34:49.400Z,9.52
2019-03-09T02:35:57.438Z,9.52
2019-03-09T02:37:05.413Z,9.51
2019-03-09T02:38:14.930Z,9.51
2019-03-09T02:39:24.717Z,9.51
2019-03-09T02:40:32.669Z,9.49
2019-03-09T02:41:40.767Z,9.50
2019-03-09T02:42:49.048Z,9.47
2019-03-09T02:43:56.900Z,9.47
2019-03-09T02:45:07.641Z,9.45
2019-03-09T02:46:15.938Z,9.44
2019-03-09T02:47:24.273Z,9.46
2019-03-09T02:48:32.195Z,9.46
2019-03-09T02:49:40.051Z,9.48
2019-03-09T02:50:55.664Z,9.49
2019-03-09T02:52:03.780Z,9.51
2019-03-09T02:53:11.804Z,9.51
2019-03-09T02:54:19.617Z,9.51
2019-03-09T02:55:27.483Z,9.52
2019-03-09T02:56:35.522Z,9.52
2019-03-09T02:57:43.703Z,9.53
2019-03-09T02:58:51.998Z,9.53
2019-03-09T03:00:01.139Z,9.53
2019-03-09T03:01:13.908Z,9.52
2019-03-09T03:02:26.256Z,9.52
2019-03-09T03:03:34.288Z,9.52
2019-03-09T03:04:42.306Z,9.50
2019-03-09T03:05:50.482Z,9.48
2019-03-09T03:06:58.804Z,9.50
2019-03-09T03:08:07.201Z,9.49
2019-03-09T03:09:15.258Z,9.48
2019-03-09T03:10:23.598Z,9.46
2019-03-09T03:11:31.959Z,9.46
2019-03-09T03:12:40.326Z,9.47
2019-03-09T03:13:48.489Z,9.45
2019-03-09T03:14:57.017Z,9.44
2019-03-09T03:16:05.198Z,9.42
2019-03-09T03:17:13.109Z,9.40
2019-03-09T03:18:21.158Z,9.41
2019-03-09T03:19:29.483Z,9.40
2019-03-09T03:20:37.504Z,9.38
2019-03-09T03:21:45.622Z,9.38
2019-03-09T03:22:53.885Z,9.36
2019-03-09T03:24:01.892Z,9.35
2019-03-09T03:25:10.191Z,9.33
2019-03-09T03:26:18.191Z,9.31
2019-03-09T03:27:26.438Z,9.30
2019-03-09T03:28:35.794Z,9.27
2019-03-09T03:29:43.709Z,9.26
2019-03-09T03:30:51.873Z,9.25
2019-03-09T03:32:00.042Z,9.26
2019-03-09T03:33:08.164Z,9.25
2019-03-09T03:34:16.306Z,9.24
2019-03-09T03:35:24.635Z,9.23
2019-03-09T03:36:32.756Z,9.20
2019-03-09T03:37:40.659Z,9.16
2019-03-09T03:38:48.576Z,9.13
2019-03-09T03:39:56.572Z,9.10
2019-03-09T03:41:04.845Z,9.11
2019-03-09T03:42:13.005Z,9.10
2019-03-09T03:43:21.066Z,9.09
2019-03-09T03:44:29.064Z,9.08
2019-03-09T03:45:37.146Z,9.06
2019-03-09T03:46:45.368Z,9.04
2019-03-09T03:47:53.540Z,9.01
2019-03-09T03:49:03.729Z,9.01
2019-03-09T03:50:11.482Z,8.99
2019-03-09T03:51:20.036Z,8.96
2019-03-09T03:52:28.287Z,8.93
2019-03-09T03:53:36.263Z,8.90
2019-03-09T03:54:44.199Z,8.87
2019-03-09T03:55:52.439Z,8.86
2019-03-09T03:57:00.518Z,8.84
2019-03-09T03:58:09.114Z,8.83
2019-03-09T03:59:17.120Z,8.82
2019-03-09T04:00:25.028Z,8.81
2019-03-09T04:01:33.359Z,8.81
2019-03-09T04:02:41.528Z,8.82
2019-03-09T04:03:49.572Z,8.80
2019-03-09T04:04:57.579Z,8.80
2019-03-09T04:06:06.052Z,8.79
2019-03-09T04:07:14.788Z,8.79
2019-03-09T04:08:23.023Z,8.77
2019-03-09T04:09:31.130Z,8.76
2019-03-09T04:10:39.585Z,8.74
2019-03-09T04:11:47.652Z,8.73
2019-03-09T04:12:56.395Z,8.73
2019-03-09T04:14:04.689Z,8.72
2019-03-09T04:15:13.084Z,8.71
2019-03-09T04:16:21.009Z,8.69
2019-03-09T04:17:28.979Z,8.67
2019-03-09T04:18:36.974Z,8.68
2019-03-09T04:19:44.887Z,8.68
2019-03-09T04:20:52.661Z,8.69
2019-03-09T04:22:00.658Z,8.69
2019-03-09T04:23:08.650Z,8.68
2019-03-09T04:24:16.760Z,8.66
2019-03-09T04:25:24.857Z,8.65
2019-03-09T04:26:32.959Z,8.63
2019-03-09T04:27:41.169Z,8.64
2019-03-09T04:28:49.176Z,8.61
2019-03-09T04:29:57.759Z,8.60
2019-03-09T04:31:05.889Z,8.60
2019-03-09T04:32:14.037Z,8.60
2019-03-09T04:33:22.178Z,8.60
2019-03-09T04:34:30.320Z,8.59
2019-03-09T04:35:38.188Z,8.59
2019-03-09T04:36:46.314Z,8.59
2019-03-09T04:37:54.414Z,8.58
2019-03-09T04:39:02.707Z,8.58
2019-03-09T04:40:12.951Z,8.57
2019-03-09T04:41:21.049Z,8.57
2019-03-09T04:42:28.800Z,8.57
2019-03-09T04:43:36.692Z,8.58
2019-03-09T04:44:44.699Z,8.56
2019-03-09T04:45:52.459Z,8.59
2019-03-09T04:47:00.182Z,8.58
2019-03-09T04:48:08.022Z,8.58
2019-03-09T04:49:15.868Z,8.56
2019-03-09T04:50:24.116Z,8.56
2019-03-09T04:51:31.877Z,8.55
2019-03-09T04:52:39.610Z,8.55
2019-03-09T04:53:47.429Z,8.56
2019-03-09T04:54:55.347Z,8.56
2019-03-09T04:56:03.542Z,8.56
2019-03-09T04:57:11.396Z,8.58
2019-03-09T04:58:19.436Z,8.59
2019-03-09T04:59:27.826Z,8.58
2019-03-09T05:00:36.062Z,8.58
2019-03-09T05:01:44.335Z,8.57
2019-03-09T05:02:52.179Z,8.57
2019-03-09T05:04:27.225Z,8.56
2019-03-09T05:05:35.133Z,8.58
2019-03-09T05:06:43.249Z,8.56
2019-03-09T05:07:58.423Z,8.55
2019-03-09T05:09:47.260Z,8.54
2019-03-09T05:11:00.165Z,8.53
2019-03-09T05:12:08.009Z,8.50
2019-03-09T05:13:26.136Z,8.48
2019-03-09T05:14:34.512Z,8.48
2019-03-09T05:15:42.554Z,8.46
2019-03-09T05:16:50.312Z,8.46
2019-03-09T05:17:58.082Z,8.46
2019-03-09T05:19:06.003Z,8.46
2019-03-09T05:20:13.976Z,8.46
2019-03-09T05:21:21.850Z,8.46
2019-03-09T05:22:29.982Z,8.47
2019-03-09T05:23:37.894Z,8.47
2019-03-09T05:24:45.897Z,8.47
2019-03-09T05:25:54.047Z,8.47
2019-03-09T05:27:02.247Z,8.47
2019-03-09T05:28:10.368Z,8.47
2019-03-09T05:29:18.374Z,8.48
2019-03-09T05:30:41.789Z,8.49
2019-03-09T05:31:49.708Z,8.51
2019-03-09T05:32:57.416Z,8.54
2019-03-09T05:34:05.701Z,8.55
2019-03-09T05:35:13.916Z,8.55
2019-03-09T05:36:22.136Z,8.55
2019-03-09T05:37:30.337Z,8.55
2019-03-09T05:38:38.351Z,8.53
2019-03-09T05:39:46.328Z,8.53
2019-03-09T05:40:54.337Z,8.50
2019-03-09T05:42:02.543Z,8.51
2019-03-09T05:43:11.084Z,8.50
2019-03-09T05:44:18.919Z,8.49
2019-03-09T05:45:27.000Z,8.48
2019-03-09T05:46:35.034Z,8.49
2019-03-09T05:47:43.164Z,8.48
2019-03-09T05:48:51.672Z,8.48
2019-03-09T05:49:59.868Z,8.49
2019-03-09T05:51:08.281Z,8.50
2019-03-09T05:52:31.937Z,8.52
2019-03-09T05:53:39.968Z,8.51
2019-03-09T05:54:48.226Z,8.52
2019-03-09T05:55:56.139Z,8.53
2019-03-09T05:57:04.232Z,8.55
2019-03-09T05:58:12.125Z,8.58
2019-03-09T05:59:20.009Z,8.60
2019-03-09T06:00:29.062Z,8.61
2019-03-09T06:01:37.195Z,8.64
2019-03-09T06:02:45.057Z,8.66
2019-03-09T06:03:52.924Z,8.68
2019-03-09T06:05:00.812Z,8.70
2019-03-09T06:06:08.738Z,8.71
2019-03-09T06:07:16.793Z,8.72
2019-03-09T06:08:24.875Z,8.74
2019-03-09T06:09:32.954Z,8.75
2019-03-09T06:10:40.966Z,8.77
2019-03-09T06:11:49.086Z,8.78
2019-03-09T06:12:57.008Z,8.79
2019-03-09T06:14:05.166Z,8.80
2019-03-09T06:15:13.165Z,8.82
2019-03-09T06:16:21.001Z,8.83
2019-03-09T06:17:28.910Z,8.84
2019-03-09T06:18:36.990Z,8.84
2019-03-09T06:19:44.958Z,8.83
2019-03-09T06:20:52.893Z,8.84
2019-03-09T06:22:00.958Z,8.84
2019-03-09T06:23:09.030Z,8.84
2019-03-09T06:24:17.022Z,8.85
2019-03-09T06:25:25.142Z,8.84
2019-03-09T06:26:33.554Z,8.83
2019-03-09T06:27:41.835Z,8.83
2019-03-09T06:28:49.944Z,8.82
2019-03-09T06:29:57.890Z,8.79
2019-03-09T06:31:05.839Z,8.79
2019-03-09T06:32:36.227Z,8.78
2019-03-09T06:33:44.739Z,8.78
2019-03-09T06:34:52.896Z,8.79
2019-03-09T06:36:10.812Z,8.80
2019-03-09T06:37:23.065Z,8.80
2019-03-09T06:38:50.384Z,8.79
2019-03-09T06:39:59.038Z,8.80
2019-03-09T06:41:11.063Z,8.82
2019-03-09T06:42:32.408Z,8.83
2019-03-09T06:43:40.309Z,8.87
2019-03-09T06:44:48.802Z,8.91
2019-03-09T06:45:56.848Z,8.93
2019-03-09T06:47:04.691Z,8.96
2019-03-09T06:48:12.971Z,9.00
2019-03-09T06:49:21.487Z,9.01
2019-03-09T06:50:29.389Z,9.07
2019-03-09T06:51:37.671Z,9.10
2019-03-09T06:52:45.769Z,9.14
2019-03-09T06:53:54.338Z,9.19
2019-03-09T06:55:02.501Z,9.22
2019-03-09T06:56:10.413Z,9.28
2019-03-09T06:57:18.571Z,9.31
2019-03-09T06:58:26.544Z,9.34
2019-03-09T06:59:34.467Z,9.39
2019-03-09T07:00:42.800Z,9.41
2019-03-09T07:01:51.053Z,9.42
2019-03-09T07:02:59.137Z,9.44
2019-03-09T07:04:07.127Z,9.45
2019-03-09T07:05:15.100Z,9.44
2019-03-09T07:06:23.553Z,9.48
2019-03-09T07:07:32.079Z,9.50
2019-03-09T07:08:40.241Z,9.53
2019-03-09T07:09:48.547Z,9.57
2019-03-09T07:10:56.564Z,9.59
2019-03-09T07:12:04.762Z,9.63
2019-03-09T07:13:12.874Z,9.66
2019-03-09T07:14:55.414Z,9.68
2019-03-09T07:16:03.722Z,9.72
2019-03-09T07:17:11.529Z,9.76
2019-03-09T07:18:19.372Z,9.80
2019-03-09T07:19:27.241Z,9.82
2019-03-09T07:20:35.317Z,9.84
2019-03-09T07:22:14.977Z,9.91
2019-03-09T07:23:23.268Z,9.90
2019-03-09T07:24:31.354Z,9.92
2019-03-09T07:25:39.220Z,9.98
2019-03-09T07:26:47.164Z,10.01
2019-03-09T07:28:05.241Z,10.05
2019-03-09T07:29:13.181Z,10.09
2019-03-09T07:30:21.169Z,10.15
2019-03-09T07:31:29.478Z,10.19
2019-03-09T07:32:37.786Z,10.23
2019-03-09T07:33:45.980Z,10.26
2019-03-09T07:34:54.074Z,10.27
2019-03-09T07:36:01.975Z,10.28
2019-03-09T07:37:09.871Z,10.31
2019-03-09T07:38:17.733Z,10.33
2019-03-09T07:39:25.706Z,10.36
2019-03-09T07:40:33.685Z,10.38
2019-03-09T07:41:42.030Z,10.41
2019-03-09T07:42:50.093Z,10.43
2019-03-09T07:43:58.139Z,10.46
2019-03-09T07:45:10.837Z,10.50
2019-03-09T07:46:18.676Z,10.55
2019-03-09T07:47:26.685Z,10.58
2019-03-09T07:48:34.569Z,10.61
2019-03-09T07:49:43.036Z,10.64
2019-03-09T07:50:50.909Z,10.65
2019-03-09T07:51:58.951Z,10.68
2019-03-09T07:53:06.902Z,10.71
2019-03-09T07:54:14.999Z,10.71
2019-03-09T07:55:23.941Z,10.73
2019-03-09T07:56:33.539Z,10.77
2019-03-09T07:57:41.578Z,10.82
2019-03-09T07:58:49.831Z,10.87
2019-03-09T07:59:57.831Z,10.92
2019-03-09T08:01:05.843Z,10.98
2019-03-09T08:02:14.620Z,11.02
2019-03-09T08:03:22.842Z,11.07
2019-03-09T08:04:30.928Z,11.10
2019-03-09T08:05:39.086Z,11.13
2019-03-09T08:07:49.849Z,11.24
2019-03-09T08:09:18.780Z,11.23
2019-03-09T08:10:29.524Z,11.25
2019-03-09T08:11:37.955Z,11.26
2019-03-09T08:12:46.177Z,11.28
2019-03-09T08:13:54.177Z,11.29
2019-03-09T08:15:02.135Z,11.31
2019-03-09T08:16:10.113Z,11.31
2019-03-09T08:17:18.103Z,11.33
2019-03-09T08:18:26.222Z,11.37
2019-03-09T08:19:34.068Z,11.39
2019-03-09T08:20:43.839Z,11.42
2019-03-09T08:21:52.031Z,11.46
2019-03-09T08:23:00.223Z,11.52
2019-03-09T08:24:08.338Z,11.57
2019-03-09T08:25:19.746Z,11.64
2019-03-09T08:26:27.775Z,11.70
2019-03-09T08:27:35.833Z,11.74
2019-03-09T08:28:43.767Z,11.78
2019-03-09T08:29:51.785Z,11.84
2019-03-09T08:30:59.811Z,11.90
2019-03-09T08:32:08.096Z,11.94
2019-03-09T08:33:15.990Z,11.96
2019-03-09T08:34:24.075Z,11.97
2019-03-09T08:35:32.090Z,11.96
2019-03-09T08:36:39.964Z,11.94
2019-03-09T08:37:48.681Z,11.93
2019-03-09T08:38:56.396Z,11.92
2019-03-09T08:40:09.386Z,11.92
2019-03-09T08:41:17.492Z,11.94
2019-03-09T08:42:25.562Z,11.96
2019-03-09T08:43:33.566Z,11.96
2019-03-09T08:44:41.443Z,11.98
2019-03-09T08:45:49.545Z,12.00
2019-03-09T08:46:57.694Z,11.99
2019-03-09T08:48:05.737Z,11.99
2019-03-09T08:49:13.973Z,12.03
2019-03-09T08:50:25.143Z,12.04
2019-03-09T08:51:33.028Z,12.05
2019-03-09T08:52:41.156Z,12.08
2019-03-09T08:53:49.068Z,12.10
2019-03-09T08:54:57.042Z,12.12
2019-03-09T08:56:05.642Z,12.19
2019-03-09T08:57:13.607Z,12.17
2019-03-09T08:58:21.645Z,12.18
2019-03-09T08:59:29.916Z,12.20
2019-03-09T09:00:37.900Z,12.20
2019-03-09T09:01:46.370Z,12.22
2019-03-09T09:03:01.458Z,12.26
2019-03-09T09:04:16.534Z,12.31
2019-03-09T09:05:28.217Z,12.37
2019-03-09T09:06:43.305Z,12.40
2019-03-09T09:07:55.243Z,12.45
2019-03-09T09:09:03.464Z,12.50
2019-03-09T09:10:12.480Z,12.54
2019-03-09T09:11:20.458Z,12.59
2019-03-09T09:12:28.443Z,12.62
2019-03-09T09:13:36.350Z,12.65
2019-03-09T09:14:44.397Z,12.68
2019-03-09T09:15:52.347Z,12.74
2019-03-09T09:17:00.451Z,12.77
2019-03-09T09:18:08.554Z,12.81
2019-03-09T09:19:16.950Z,12.83
2019-03-09T09:20:28.150Z,12.86
2019-03-09T09:21:36.220Z,12.86
2019-03-09T09:22:44.609Z,12.87
2019-03-09T09:23:52.660Z,12.87
2019-03-09T09:25:01.109Z,12.86
2019-03-09T09:26:09.164Z,12.86
2019-03-09T09:27:17.170Z,12.83
2019-03-09T09:28:25.132Z,12.78
2019-03-09T09:29:33.070Z,12.80
2019-03-09T09:30:40.993Z,12.79
2019-03-09T09:31:49.400Z,12.80
2019-03-09T09:32:57.379Z,12.77
2019-03-09T09:34:05.316Z,12.78
2019-03-09T09:35:14.819Z,12.78
2019-03-09T09:36:22.767Z,12.79
2019-03-09T09:37:31.014Z,12.79
2019-03-09T09:38:39.019Z,12.81
2019-03-09T09:39:47.106Z,12.81
2019-03-09T09:40:55.404Z,12.84
2019-03-09T09:42:03.515Z,12.87
2019-03-09T09:43:11.697Z,12.90
2019-03-09T09:44:19.991Z,12.94
2019-03-09T09:45:28.003Z,12.95
2019-03-09T09:46:35.970Z,12.99
2019-03-09T09:47:44.178Z,13.01
2019-03-09T09:48:52.376Z,13.03
2019-03-09T09:50:00.420Z,13.02
2019-03-09T09:51:08.480Z,13.06
2019-03-09T09:52:16.460Z,13.07
2019-03-09T09:53:24.632Z,13.11
2019-03-09T09:54:32.495Z,13.13
2019-03-09T09:55:40.587Z,13.14
2019-03-09T09:56:48.941Z,13.13
2019-03-09T09:57:56.959Z,13.14
2019-03-09T09:59:05.055Z,13.14
2019-03-09T10:00:21.747Z,13.18
2019-03-09T10:01:29.910Z,13.23
2019-03-09T10:02:38.033Z,13.30
2019-03-09T10:03:45.970Z,13.35
2019-03-09T10:04:54.027Z,13.39
2019-03-09T10:06:02.004Z,13.40
2019-03-09T10:07:10.236Z,13.42
2019-03-09T10:08:18.010Z,13.47
2019-03-09T10:09:26.212Z,13.51
2019-03-09T10:10:34.063Z,13.53
2019-03-09T10:11:41.978Z,13.53
2019-03-09T10:12:50.070Z,13.55
2019-03-09T10:13:58.093Z,13.62
2019-03-09T10:15:14.785Z,13.64
2019-03-09T10:16:23.187Z,13.67
2019-03-09T10:17:31.059Z,13.66
2019-03-09T10:18:39.411Z,13.66
2019-03-09T10:19:47.478Z,13.67
2019-03-09T10:20:55.559Z,13.69
2019-03-09T10:22:03.766Z,13.72
2019-03-09T10:23:11.832Z,13.76
2019-03-09T10:24:19.887Z,13.78
2019-03-09T10:25:27.946Z,13.80
2019-03-09T10:26:35.801Z,13.84
2019-03-09T10:27:44.278Z,13.88
2019-03-09T10:28:52.326Z,13.91
2019-03-09T10:30:00.474Z,13.91
2019-03-09T10:31:08.658Z,13.91
2019-03-09T10:32:16.728Z,13.91
2019-03-09T10:33:24.726Z,13.92
2019-03-09T10:34:32.721Z,13.87
2019-03-09T10:35:40.756Z,13.82
2019-03-09T10:36:48.871Z,13.73
2019-03-09T10:37:56.888Z,13.67
2019-03-09T10:39:05.602Z,13.63
2019-03-09T10:40:15.709Z,13.57
2019-03-09T10:41:23.672Z,13.50
2019-03-09T10:42:31.828Z,13.45
2019-03-09T10:43:39.942Z,13.39
2019-03-09T10:44:49.788Z,13.33
2019-03-09T10:45:58.089Z,13.29
2019-03-09T10:47:06.062Z,13.21
2019-03-09T10:48:14.025Z,13.18
2019-03-09T10:49:22.524Z,13.15
2019-03-09T10:50:30.642Z,13.11
2019-03-09T10:51:38.598Z,13.11
2019-03-09T10:52:46.435Z,13.14
2019-03-09T10:53:54.668Z,13.15
2019-03-09T10:55:02.668Z,13.20
2019-03-09T10:56:10.567Z,13.25
2019-03-09T10:57:18.544Z,13.33
2019-03-09T10:58:26.558Z,13.34
2019-03-09T10:59:34.593Z,13.37
2019-03-09T11:00:45.392Z,13.41
2019-03-09T11:01:53.384Z,13.43
2019-03-09T11:03:01.411Z,13.43
2019-03-09T11:04:09.644Z,13.42
2019-03-09T11:05:17.726Z,13.41
2019-03-09T11:06:25.638Z,13.40
2019-03-09T11:07:33.659Z,13.40
2019-03-09T11:08:41.462Z,13.36
2019-03-09T11:09:49.223Z,13.37
2019-03-09T11:10:57.187Z,13.32
2019-03-09T11:12:05.174Z,13.32
2019-03-09T11:13:13.174Z,13.31
2019-03-09T11:14:21.105Z,13.29
2019-03-09T11:15:29.378Z,13.26
2019-03-09T11:16:37.377Z,13.23
2019-03-09T11:17:45.452Z,13.22
2019-03-09T11:18:53.158Z,13.22
2019-03-09T11:20:01.173Z,13.19
2019-03-09T11:21:09.441Z,13.20
2019-03-09T11:22:17.249Z,13.16
2019-03-09T11:23:25.288Z,13.14
2019-03-09T11:24:33.275Z,13.09
2019-03-09T11:25:41.201Z,13.05
2019-03-09T11:26:49.416Z,13.05
2019-03-09T11:28:06.522Z,13.02
2019-03-09T11:29:14.531Z,13.03
2019-03-09T11:30:28.004Z,12.98
2019-03-09T11:31:36.512Z,12.95
2019-03-09T11:32:44.517Z,12.89
2019-03-09T11:33:52.665Z,12.85
2019-03-09T11:35:01.011Z,12.84
2019-03-09T11:36:09.138Z,12.82
2019-03-09T11:37:17.265Z,12.82
2019-03-09T11:38:25.742Z,12.82
2019-03-09T11:39:33.771Z,12.84
2019-03-09T11:40:41.901Z,12.84
2019-03-09T11:41:50.032Z,12.82
2019-03-09T11:42:58.420Z,12.81
2019-03-09T11:44:06.777Z,12.80
2019-03-09T11:45:19.621Z,12.77
2019-03-09T11:46:27.969Z,12.74
2019-03-09T11:47:35.881Z,12.72
2019-03-09T11:48:44.290Z,12.69
2019-03-09T11:49:52.960Z,12.66
2019-03-09T11:51:01.141Z,12.65
2019-03-09T11:52:16.317Z,12.63
2019-03-09T11:53:19.090Z,12.62
2019-03-09T11:54:27.069Z,12.62
2019-03-09T11:55:35.059Z,12.61
2019-03-09T11:56:43.067Z,12.63
2019-03-09T11:57:51.371Z,12.63
2019-03-09T11:58:59.362Z,12.62
2019-03-09T12:00:27.061Z,12.60
2019-03-09T12:01:35.052Z,12.60
2019-03-09T12:02:42.967Z,12.59
2019-03-09T12:03:50.986Z,12.59
2019-03-09T12:04:59.587Z,12.58
2019-03-09T12:06:07.711Z,12.58
2019-03-09T12:07:15.881Z,12.55
2019-03-09T12:08:24.313Z,12.54
2019-03-09T12:09:32.228Z,12.53
2019-03-09T12:10:40.609Z,12.51
2019-03-09T12:11:55.977Z,12.49
2019-03-09T12:13:04.276Z,12.42
2019-03-09T12:14:12.289Z,12.36
2019-03-09T12:15:20.481Z,12.32
2019-03-09T12:16:29.061Z,12.29
2019-03-09T12:17:37.135Z,12.28
2019-03-09T12:18:44.874Z,12.22
2019-03-09T12:19:52.878Z,12.17
2019-03-09T12:21:01.338Z,12.11
2019-03-09T12:22:09.578Z,12.05
2019-03-09T12:23:21.056Z,12.03
2019-03-09T12:24:28.931Z,11.94
2019-03-09T12:25:36.933Z,11.84
2019-03-09T12:26:44.892Z,11.76
2019-03-09T12:27:52.987Z,11.68
2019-03-09T12:29:01.017Z,11.63
2019-03-09T12:30:16.069Z,11.55
2019-03-09T12:31:24.154Z,11.48
2019-03-09T12:32:32.547Z,11.40
2019-03-09T12:33:40.664Z,11.33
2019-03-09T12:34:48.969Z,11.29
2019-03-09T12:35:56.877Z,11.26
2019-03-09T12:37:04.960Z,11.22
2019-03-09T12:38:12.988Z,11.19
2019-03-09T12:39:20.965Z,11.17
2019-03-09T12:40:29.030Z,11.16
2019-03-09T12:41:37.452Z,11.14
2019-03-09T12:42:45.646Z,11.13
2019-03-09T12:43:53.649Z,11.12
2019-03-09T12:45:01.617Z,11.07
2019-03-09T12:46:09.539Z,11.03
2019-03-09T12:47:19.016Z,11.00
2019-03-09T12:48:27.411Z,10.96
2019-03-09T12:49:35.463Z,10.95
2019-03-09T12:50:43.495Z,10.91
2019-03-09T12:51:51.655Z,10.89
2019-03-09T12:52:59.669Z,10.87
2019-03-09T12:54:07.813Z,10.82
2019-03-09T12:55:15.941Z,10.77
2019-03-09T12:56:24.242Z,10.73
2019-03-09T12:57:32.174Z,10.69
2019-03-09T12:58:40.071Z,10.63
2019-03-09T12:59:48.212Z,10.60
2019-03-09T13:00:56.324Z,10.57
2019-03-09T13:02:04.462Z,10.54
2019-03-09T13:03:12.478Z,10.51
2019-03-09T13:04:20.484Z,10.49
2019-03-09T13:05:28.672Z,10.47
2019-03-09T13:06:36.570Z,10.47
2019-03-09T13:07:44.548Z,10.46
2019-03-09T13:08:52.640Z,10.48
2019-03-09T13:10:00.897Z,10.50
2019-03-09T13:11:09.400Z,10.55
2019-03-09T13:12:17.233Z,10.57
2019-03-09T13:13:25.498Z,10.64
2019-03-09T13:14:33.492Z,10.71
2019-03-09T13:15:41.354Z,10.77
2019-03-09T13:16:49.294Z,10.82
2019-03-09T13:17:57.295Z,10.85
2019-03-09T13:19:05.449Z,10.88
2019-03-09T13:20:16.446Z,10.89
2019-03-09T13:21:24.717Z,10.91
2019-03-09T13:22:32.836Z,10.91
2019-03-09T13:23:41.126Z,10.89
2019-03-09T13:24:48.917Z,10.87
2019-03-09T13:25:56.782Z,10.86
2019-03-09T13:27:04.718Z,10.86
2019-03-09T13:28:13.108Z,10.87
2019-03-09T13:29:21.330Z,10.85
2019-03-09T13:30:29.419Z,10.84
2019-03-09T13:31:37.714Z,10.82
2019-03-09T13:32:45.997Z,10.83
2019-03-09T13:33:54.137Z,10.82
2019-03-09T13:35:02.503Z,10.82
2019-03-09T13:36:10.441Z,10.81
2019-03-09T13:37:18.302Z,10.81
2019-03-09T13:38:26.401Z,10.80
2019-03-09T13:39:34.487Z,10.78
2019-03-09T13:40:42.561Z,10.77
2019-03-09T13:41:50.526Z,10.78
2019-03-09T13:42:58.578Z,10.78
2019-03-09T13:44:07.078Z,10.80
2019-03-09T13:45:19.476Z,10.79
2019-03-09T13:46:27.914Z,10.78
2019-03-09T13:47:35.981Z,10.78
2019-03-09T13:48:44.050Z,10.80
2019-03-09T13:49:51.920Z,10.77
2019-03-09T13:50:59.856Z,10.77
2019-03-09T13:52:08.037Z,10.77
2019-03-09T13:53:15.873Z,10.76
2019-03-09T13:54:23.874Z,10.77
2019-03-09T13:55:31.803Z,10.76
2019-03-09T13:56:40.248Z,10.77
2019-03-09T13:57:48.493Z,10.77
2019-03-09T13:58:56.955Z,10.80
2019-03-09T14:00:10.889Z,10.81
2019-03-09T14:01:18.787Z,10.86
2019-03-09T14:02:26.784Z,10.88
2019-03-09T14:03:34.709Z,10.87
2019-03-09T14:04:42.757Z,10.89
2019-03-09T14:05:50.751Z,10.91
2019-03-09T14:06:58.869Z,10.93
2019-03-09T14:08:06.946Z,10.95
2019-03-09T14:09:15.141Z,10.95
2019-03-09T14:10:23.273Z,10.97
2019-03-09T14:11:31.446Z,11.00
2019-03-09T14:12:39.595Z,11.04
2019-03-09T14:13:47.663Z,11.08
2019-03-09T14:14:55.577Z,11.12
2019-03-09T14:16:03.443Z,11.15
2019-03-09T14:17:11.282Z,11.16
2019-03-09T14:18:19.461Z,11.15
2019-03-09T14:19:27.412Z,11.18
2019-03-09T14:20:35.833Z,11.19
2019-03-09T14:21:43.795Z,11.22
2019-03-09T14:22:51.691Z,11.27
2019-03-09T14:23:59.953Z,11.31
2019-03-09T14:25:11.783Z,11.33
2019-03-09T14:26:19.994Z,11.38
2019-03-09T14:27:28.194Z,11.43
2019-03-09T14:28:36.314Z,11.48
2019-03-09T14:29:44.213Z,11.53
2019-03-09T14:30:52.297Z,11.55
2019-03-09T14:32:00.470Z,11.58
2019-03-09T14:33:08.541Z,11.60
2019-03-09T14:34:16.439Z,11.61
2019-03-09T14:35:24.478Z,11.57
2019-03-09T14:36:32.704Z,11.54
2019-03-09T14:37:40.951Z,11.53
2019-03-09T14:38:49.053Z,11.53
2019-03-09T14:39:57.141Z,11.55
2019-03-09T14:41:05.262Z,11.56
2019-03-09T14:42:13.268Z,11.56
2019-03-09T14:43:21.228Z,11.57
2019-03-09T14:44:29.575Z,11.59
2019-03-09T14:45:37.552Z,11.60
2019-03-09T14:46:45.603Z,11.62
2019-03-09T14:47:53.802Z,11.64
2019-03-09T14:49:01.865Z,11.65
2019-03-09T14:50:10.815Z,11.68
2019-03-09T14:51:18.546Z,11.69
2019-03-09T14:52:26.627Z,11.71
2019-03-09T14:53:34.764Z,11.72
2019-03-09T14:54:42.786Z,11.72
2019-03-09T14:55:50.830Z,11.70
2019-03-09T14:56:59.094Z,11.72
2019-03-09T14:58:07.095Z,11.72
2019-03-09T14:59:15.044Z,11.72